sensor_id;sensor_type;location;lat;lon;timestamp;P1;durP1;ratioP1;P2;durP2;ratioP2
12476;SDS011;6303;51.504;6.300;2022-08-19T00:01:20;5.55;;;5.15;;
12476;SDS011;6303;51.504;6.300;2022-08-19T00:03:47;5.63;;;5.32;;
12476;SDS011;6303;51.504;6.300;2022-08-19T00:06:14;5.90;;;5.50;;
12476;SDS011;6303;51.504;6.300;2022-08-19T00:08:42;5.50;;;5.20;;
12476;SDS011;6303;51.504;6.300;2022-08-19T00:11:10;5.40;;;5.10;;
12476;SDS011;6303;51.504;6.300;2022-08-19T00:13:37;5.32;;;4.93;;
12476;SDS011;6303;51.504;6.300;2022-08-19T00:16:04;5.72;;;5.32;;
12476;SDS011;6303;51.504;6.300;2022-08-19T00:18:33;5.18;;;4.88;;
12476;SDS011;6303;51.504;6.300;2022-08-19T00:21:01;5.82;;;5.35;;
12476;SDS011;6303;51.504;6.300;2022-08-19T00:23:34;5.50;;;5.15;;
12476;SDS011;6303;51.504;6.300;2022-08-19T00:26:02;5.68;;;5.28;;
12476;SDS011;6303;51.504;6.300;2022-08-19T00:28:29;5.43;;;5.13;;
12476;SDS011;6303;51.504;6.300;2022-08-19T00:30:57;5.30;;;5.00;;
12476;SDS011;6303;51.504;6.300;2022-08-19T00:33:24;5.38;;;5.07;;
12476;SDS011;6303;51.504;6.300;2022-08-19T00:35:52;5.25;;;4.95;;
12476;SDS011;6303;51.504;6.300;2022-08-19T00:38:21;5.40;;;5.10;;
12476;SDS011;6303;51.504;6.300;2022-08-19T00:40:48;5.32;;;5.03;;
12476;SDS011;6303;51.504;6.300;2022-08-19T00:43:18;5.28;;;4.88;;
12476;SDS011;6303;51.504;6.300;2022-08-19T00:45:47;5.18;;;4.88;;
12476;SDS011;6303;51.504;6.300;2022-08-19T00:48:15;6.00;;;5.50;;
12476;SDS011;6303;51.504;6.300;2022-08-19T00:50:43;5.50;;;5.00;;
12476;SDS011;6303;51.504;6.300;2022-08-19T00:53:13;5.13;;;4.82;;
12476;SDS011;6303;51.504;6.300;2022-08-19T00:55:44;5.50;;;5.15;;
12476;SDS011;6303;51.504;6.300;2022-08-19T00:58:13;5.32;;;4.93;;
12476;SDS011;6303;51.504;6.300;2022-08-19T01:00:42;5.05;;;4.72;;
12476;SDS011;6303;51.504;6.300;2022-08-19T01:03:12;5.50;;;5.10;;
12476;SDS011;6303;51.504;6.300;2022-08-19T01:05:42;5.43;;;5.03;;
12476;SDS011;6303;51.504;6.300;2022-08-19T01:08:10;5.10;;;4.80;;
12476;SDS011;6303;51.504;6.300;2022-08-19T01:10:40;5.53;;;5.15;;
12476;SDS011;6303;51.504;6.300;2022-08-19T01:13:09;5.38;;;4.97;;
12476;SDS011;6303;51.504;6.300;2022-08-19T01:15:38;5.00;;;4.60;;
12476;SDS011;6303;51.504;6.300;2022-08-19T01:18:10;5.30;;;4.90;;
12476;SDS011;6303;51.504;6.300;2022-08-19T01:20:39;5.45;;;5.13;;
12476;SDS011;6303;51.504;6.300;2022-08-19T01:23:09;5.00;;;4.70;;
12476;SDS011;6303;51.504;6.300;2022-08-19T01:25:39;5.10;;;4.75;;
12476;SDS011;6303;51.504;6.300;2022-08-19T01:28:14;5.40;;;5.00;;
12476;SDS011;6303;51.504;6.300;2022-08-19T01:30:43;5.75;;;5.30;;
12476;SDS011;6303;51.504;6.300;2022-08-19T01:33:11;5.30;;;5.00;;
12476;SDS011;6303;51.504;6.300;2022-08-19T01:35:38;5.38;;;4.93;;
12476;SDS011;6303;51.504;6.300;2022-08-19T01:38:07;5.35;;;5.05;;
12476;SDS011;6303;51.504;6.300;2022-08-19T01:40:37;4.97;;;4.57;;
12476;SDS011;6303;51.504;6.300;2022-08-19T01:43:07;5.43;;;5.13;;
12476;SDS011;6303;51.504;6.300;2022-08-19T01:45:34;5.43;;;5.05;;
12476;SDS011;6303;51.504;6.300;2022-08-19T01:48:02;5.65;;;5.25;;
12476;SDS011;6303;51.504;6.300;2022-08-19T01:50:30;5.40;;;5.00;;
12476;SDS011;6303;51.504;6.300;2022-08-19T01:52:58;5.40;;;5.00;;
12476;SDS011;6303;51.504;6.300;2022-08-19T01:55:27;5.30;;;5.00;;
12476;SDS011;6303;51.504;6.300;2022-08-19T01:57:57;5.43;;;5.13;;
12476;SDS011;6303;51.504;6.300;2022-08-19T02:00:26;5.78;;;5.38;;
12476;SDS011;6303;51.504;6.300;2022-08-19T02:02:56;5.72;;;5.28;;
12476;SDS011;6303;51.504;6.300;2022-08-19T02:05:23;5.68;;;5.30;;
12476;SDS011;6303;51.504;6.300;2022-08-19T02:07:51;5.80;;;5.40;;
12476;SDS011;6303;51.504;6.300;2022-08-19T02:10:18;5.55;;;5.20;;
12476;SDS011;6303;51.504;6.300;2022-08-19T02:12:48;5.53;;;5.22;;
12476;SDS011;6303;51.504;6.300;2022-08-19T02:15:16;5.78;;;5.38;;
12476;SDS011;6303;51.504;6.300;2022-08-19T02:17:44;5.97;;;5.57;;
12476;SDS011;6303;51.504;6.300;2022-08-19T02:20:11;5.70;;;5.30;;
12476;SDS011;6303;51.504;6.300;2022-08-19T02:22:39;5.45;;;5.15;;
12476;SDS011;6303;51.504;6.300;2022-08-19T02:25:08;5.90;;;5.40;;
12476;SDS011;6303;51.504;6.300;2022-08-19T02:27:35;5.93;;;5.53;;
12476;SDS011;6303;51.504;6.300;2022-08-19T02:30:04;5.18;;;4.82;;
12476;SDS011;6303;51.504;6.300;2022-08-19T02:32:33;5.90;;;5.32;;
12476;SDS011;6303;51.504;6.300;2022-08-19T02:35:00;5.72;;;5.32;;
12476;SDS011;6303;51.504;6.300;2022-08-19T02:37:28;5.32;;;5.03;;
12476;SDS011;6303;51.504;6.300;2022-08-19T02:40:12;5.90;;;5.50;;
12476;SDS011;6303;51.504;6.300;2022-08-19T02:42:40;5.47;;;5.07;;
12476;SDS011;6303;51.504;6.300;2022-08-19T02:45:09;6.35;;;5.95;;
12476;SDS011;6303;51.504;6.300;2022-08-19T02:47:36;5.97;;;5.57;;
12476;SDS011;6303;51.504;6.300;2022-08-19T02:50:04;6.05;;;5.65;;
12476;SDS011;6303;51.504;6.300;2022-08-19T02:52:32;6.15;;;5.75;;
12476;SDS011;6303;51.504;6.300;2022-08-19T02:54:59;6.13;;;5.60;;
12476;SDS011;6303;51.504;6.300;2022-08-19T02:57:27;5.97;;;5.57;;
12476;SDS011;6303;51.504;6.300;2022-08-19T02:59:56;6.18;;;5.68;;
12476;SDS011;6303;51.504;6.300;2022-08-19T03:02:25;6.35;;;5.75;;
12476;SDS011;6303;51.504;6.300;2022-08-19T03:04:52;6.30;;;5.90;;
12476;SDS011;6303;51.504;6.300;2022-08-19T03:07:19;6.40;;;5.80;;
12476;SDS011;6303;51.504;6.300;2022-08-19T03:09:46;6.22;;;5.63;;
12476;SDS011;6303;51.504;6.300;2022-08-19T03:12:13;6.30;;;5.70;;
12476;SDS011;6303;51.504;6.300;2022-08-19T03:14:40;6.05;;;5.55;;
12476;SDS011;6303;51.504;6.300;2022-08-19T03:17:07;6.00;;;5.53;;
12476;SDS011;6303;51.504;6.300;2022-08-19T03:19:35;6.80;;;6.30;;
12476;SDS011;6303;51.504;6.300;2022-08-19T03:22:03;6.40;;;5.85;;
12476;SDS011;6303;51.504;6.300;2022-08-19T03:24:30;6.43;;;5.97;;
12476;SDS011;6303;51.504;6.300;2022-08-19T03:26:57;6.53;;;5.93;;
12476;SDS011;6303;51.504;6.300;2022-08-19T03:29:25;6.35;;;5.85;;
12476;SDS011;6303;51.504;6.300;2022-08-19T03:31:53;6.78;;;6.22;;
12476;SDS011;6303;51.504;6.300;2022-08-19T03:34:21;7.00;;;6.20;;
12476;SDS011;6303;51.504;6.300;2022-08-19T03:36:52;6.85;;;6.35;;
12476;SDS011;6303;51.504;6.300;2022-08-19T03:39:20;6.47;;;6.05;;
12476;SDS011;6303;51.504;6.300;2022-08-19T03:41:48;6.90;;;6.40;;
12476;SDS011;6303;51.504;6.300;2022-08-19T03:44:17;7.03;;;6.53;;
12476;SDS011;6303;51.504;6.300;2022-08-19T03:46:46;7.25;;;6.57;;
12476;SDS011;6303;51.504;6.300;2022-08-19T03:49:14;6.80;;;6.30;;
12476;SDS011;6303;51.504;6.300;2022-08-19T03:51:41;6.80;;;6.30;;
12476;SDS011;6303;51.504;6.300;2022-08-19T03:54:12;7.68;;;7.07;;
12476;SDS011;6303;51.504;6.300;2022-08-19T03:56:41;7.75;;;7.13;;
12476;SDS011;6303;51.504;6.300;2022-08-19T03:59:11;7.65;;;7.03;;
12476;SDS011;6303;51.504;6.300;2022-08-19T04:01:40;7.43;;;6.88;;
12476;SDS011;6303;51.504;6.300;2022-08-19T04:04:07;7.68;;;7.07;;
12476;SDS011;6303;51.504;6.300;2022-08-19T04:06:35;8.43;;;7.82;;
12476;SDS011;6303;51.504;6.300;2022-08-19T04:09:04;8.38;;;7.65;;
12476;SDS011;6303;51.504;6.300;2022-08-19T04:11:35;9.70;;;8.90;;
12476;SDS011;6303;51.504;6.300;2022-08-19T04:14:06;9.93;;;8.60;;
12476;SDS011;6303;51.504;6.300;2022-08-19T04:16:34;10.60;;;9.50;;
12476;SDS011;6303;51.504;6.300;2022-08-19T04:19:01;12.70;;;10.75;;
12476;SDS011;6303;51.504;6.300;2022-08-19T04:21:31;11.60;;;10.63;;
12476;SDS011;6303;51.504;6.300;2022-08-19T04:23:59;11.48;;;10.50;;
12476;SDS011;6303;51.504;6.300;2022-08-19T04:26:26;11.63;;;10.63;;
12476;SDS011;6303;51.504;6.300;2022-08-19T04:28:58;11.77;;;10.85;;
12476;SDS011;6303;51.504;6.300;2022-08-19T04:31:26;11.63;;;10.63;;
12476;SDS011;6303;51.504;6.300;2022-08-19T04:33:56;11.68;;;10.68;;
12476;SDS011;6303;51.504;6.300;2022-08-19T04:36:25;11.23;;;10.30;;
12476;SDS011;6303;51.504;6.300;2022-08-19T04:38:54;12.52;;;11.52;;
12476;SDS011;6303;51.504;6.300;2022-08-19T04:41:23;13.13;;;11.85;;
12476;SDS011;6303;51.504;6.300;2022-08-19T04:44:09;12.95;;;11.88;;
12476;SDS011;6303;51.504;6.300;2022-08-19T04:46:37;13.02;;;11.90;;
12476;SDS011;6303;51.504;6.300;2022-08-19T04:49:04;12.55;;;11.65;;
12476;SDS011;6303;51.504;6.300;2022-08-19T04:51:33;13.13;;;11.93;;
12476;SDS011;6303;51.504;6.300;2022-08-19T04:54:02;12.98;;;11.85;;
12476;SDS011;6303;51.504;6.300;2022-08-19T04:56:30;13.32;;;12.05;;
12476;SDS011;6303;51.504;6.300;2022-08-19T04:58:57;13.90;;;12.65;;
12476;SDS011;6303;51.504;6.300;2022-08-19T05:01:30;13.45;;;12.25;;
12476;SDS011;6303;51.504;6.300;2022-08-19T05:03:58;12.80;;;11.77;;
12476;SDS011;6303;51.504;6.300;2022-08-19T05:06:26;15.07;;;13.80;;
12476;SDS011;6303;51.504;6.300;2022-08-19T05:08:54;17.33;;;15.68;;
12476;SDS011;6303;51.504;6.300;2022-08-19T05:11:22;14.95;;;13.65;;
12476;SDS011;6303;51.504;6.300;2022-08-19T05:13:50;16.23;;;14.75;;
12476;SDS011;6303;51.504;6.300;2022-08-19T05:16:19;16.20;;;14.73;;
12476;SDS011;6303;51.504;6.300;2022-08-19T05:18:49;15.43;;;13.93;;
12476;SDS011;6303;51.504;6.300;2022-08-19T05:21:34;16.85;;;15.15;;
12476;SDS011;6303;51.504;6.300;2022-08-19T05:24:20;17.30;;;15.52;;
12476;SDS011;6303;51.504;6.300;2022-08-19T05:26:49;16.33;;;14.93;;
12476;SDS011;6303;51.504;6.300;2022-08-19T05:29:18;15.82;;;14.43;;
12476;SDS011;6303;51.504;6.300;2022-08-19T05:31:46;17.42;;;15.85;;
12476;SDS011;6303;51.504;6.300;2022-08-19T05:34:15;18.40;;;16.67;;
12476;SDS011;6303;51.504;6.300;2022-08-19T05:36:44;20.15;;;18.08;;
12476;SDS011;6303;51.504;6.300;2022-08-19T05:39:13;19.95;;;18.05;;
12476;SDS011;6303;51.504;6.300;2022-08-19T05:41:42;19.60;;;17.80;;
12476;SDS011;6303;51.504;6.300;2022-08-19T05:44:09;19.70;;;17.90;;
12476;SDS011;6303;51.504;6.300;2022-08-19T05:46:36;20.17;;;18.35;;
12476;SDS011;6303;51.504;6.300;2022-08-19T05:49:04;22.00;;;19.70;;
12476;SDS011;6303;51.504;6.300;2022-08-19T05:51:34;21.20;;;19.25;;
12476;SDS011;6303;51.504;6.300;2022-08-19T05:54:02;20.83;;;18.88;;
12476;SDS011;6303;51.504;6.300;2022-08-19T05:56:31;23.90;;;21.58;;
12476;SDS011;6303;51.504;6.300;2022-08-19T05:59:01;23.52;;;21.20;;
12476;SDS011;6303;51.504;6.300;2022-08-19T06:01:29;23.45;;;21.08;;
12476;SDS011;6303;51.504;6.300;2022-08-19T06:03:56;25.65;;;23.00;;
12476;SDS011;6303;51.504;6.300;2022-08-19T06:06:23;24.52;;;22.13;;
12476;SDS011;6303;51.504;6.300;2022-08-19T06:08:51;23.73;;;21.42;;
12476;SDS011;6303;51.504;6.300;2022-08-19T06:11:20;23.85;;;21.50;;
12476;SDS011;6303;51.504;6.300;2022-08-19T06:13:49;24.05;;;21.65;;
12476;SDS011;6303;51.504;6.300;2022-08-19T06:16:18;24.13;;;21.83;;
12476;SDS011;6303;51.504;6.300;2022-08-19T06:18:47;24.63;;;22.25;;
12476;SDS011;6303;51.504;6.300;2022-08-19T06:21:17;26.00;;;23.33;;
12476;SDS011;6303;51.504;6.300;2022-08-19T06:23:45;23.17;;;20.92;;
12476;SDS011;6303;51.504;6.300;2022-08-19T06:26:14;24.25;;;21.65;;
12476;SDS011;6303;51.504;6.300;2022-08-19T06:28:42;25.55;;;22.85;;
12476;SDS011;6303;51.504;6.300;2022-08-19T06:31:12;25.65;;;22.85;;
12476;SDS011;6303;51.504;6.300;2022-08-19T06:33:41;24.98;;;22.20;;
12476;SDS011;6303;51.504;6.300;2022-08-19T06:36:15;27.20;;;24.40;;
12476;SDS011;6303;51.504;6.300;2022-08-19T06:38:45;27.50;;;24.48;;
12476;SDS011;6303;51.504;6.300;2022-08-19T06:41:13;27.88;;;24.73;;
12476;SDS011;6303;51.504;6.300;2022-08-19T06:43:41;27.25;;;24.55;;
12476;SDS011;6303;51.504;6.300;2022-08-19T06:46:11;28.38;;;25.45;;
12476;SDS011;6303;51.504;6.300;2022-08-19T06:48:40;27.90;;;25.05;;
12476;SDS011;6303;51.504;6.300;2022-08-19T06:51:07;28.67;;;25.67;;
12476;SDS011;6303;51.504;6.300;2022-08-19T06:53:34;30.58;;;26.67;;
12476;SDS011;6303;51.504;6.300;2022-08-19T06:56:01;31.30;;;27.58;;
12476;SDS011;6303;51.504;6.300;2022-08-19T06:58:30;31.60;;;28.13;;
12476;SDS011;6303;51.504;6.300;2022-08-19T07:00:59;32.45;;;28.95;;
12476;SDS011;6303;51.504;6.300;2022-08-19T07:03:28;34.35;;;30.35;;
12476;SDS011;6303;51.504;6.300;2022-08-19T07:05:57;37.97;;;32.22;;
12476;SDS011;6303;51.504;6.300;2022-08-19T07:08:28;35.72;;;31.05;;
12476;SDS011;6303;51.504;6.300;2022-08-19T07:10:55;37.80;;;32.42;;
12476;SDS011;6303;51.504;6.300;2022-08-19T07:13:22;36.63;;;31.52;;
12476;SDS011;6303;51.504;6.300;2022-08-19T07:15:51;40.13;;;32.55;;
12476;SDS011;6303;51.504;6.300;2022-08-19T07:18:18;37.95;;;32.22;;
12476;SDS011;6303;51.504;6.300;2022-08-19T07:20:46;37.95;;;33.13;;
12476;SDS011;6303;51.504;6.300;2022-08-19T07:23:14;37.40;;;32.35;;
12476;SDS011;6303;51.504;6.300;2022-08-19T07:25:41;36.72;;;32.72;;
12476;SDS011;6303;51.504;6.300;2022-08-19T07:28:08;37.83;;;32.78;;
12476;SDS011;6303;51.504;6.300;2022-08-19T07:30:36;40.85;;;33.20;;
12476;SDS011;6303;51.504;6.300;2022-08-19T07:33:07;39.85;;;33.35;;
12476;SDS011;6303;51.504;6.300;2022-08-19T07:35:34;41.85;;;34.65;;
12476;SDS011;6303;51.504;6.300;2022-08-19T07:38:01;41.03;;;35.50;;
12476;SDS011;6303;51.504;6.300;2022-08-19T07:40:29;45.05;;;37.80;;
12476;SDS011;6303;51.504;6.300;2022-08-19T07:42:57;45.78;;;38.30;;
12476;SDS011;6303;51.504;6.300;2022-08-19T07:45:24;48.30;;;38.50;;
12476;SDS011;6303;51.504;6.300;2022-08-19T07:47:52;45.80;;;37.38;;
12476;SDS011;6303;51.504;6.300;2022-08-19T07:50:20;49.05;;;39.28;;
12476;SDS011;6303;51.504;6.300;2022-08-19T07:52:48;43.67;;;36.03;;
12476;SDS011;6303;51.504;6.300;2022-08-19T07:55:16;42.55;;;35.47;;
12476;SDS011;6303;51.504;6.300;2022-08-19T07:57:45;43.97;;;35.00;;
12476;SDS011;6303;51.504;6.300;2022-08-19T08:00:12;40.15;;;34.42;;
12476;SDS011;6303;51.504;6.300;2022-08-19T08:02:40;42.10;;;35.08;;
12476;SDS011;6303;51.504;6.300;2022-08-19T08:05:08;46.08;;;36.17;;
12476;SDS011;6303;51.504;6.300;2022-08-19T08:07:57;40.25;;;33.90;;
12476;SDS011;6303;51.504;6.300;2022-08-19T08:10:43;46.25;;;36.15;;
12476;SDS011;6303;51.504;6.300;2022-08-19T08:13:10;40.95;;;35.08;;
12476;SDS011;6303;51.504;6.300;2022-08-19T08:15:38;41.63;;;34.40;;
12476;SDS011;6303;51.504;6.300;2022-08-19T08:18:05;41.72;;;35.33;;
12476;SDS011;6303;51.504;6.300;2022-08-19T08:20:32;44.58;;;36.75;;
12476;SDS011;6303;51.504;6.300;2022-08-19T08:23:01;43.15;;;37.03;;
12476;SDS011;6303;51.504;6.300;2022-08-19T08:25:45;42.30;;;35.13;;
12476;SDS011;6303;51.504;6.300;2022-08-19T08:28:13;42.05;;;34.78;;
12476;SDS011;6303;51.504;6.300;2022-08-19T08:30:41;41.00;;;34.40;;
12476;SDS011;6303;51.504;6.300;2022-08-19T08:33:08;39.70;;;33.50;;
12476;SDS011;6303;51.504;6.300;2022-08-19T08:35:36;40.92;;;34.78;;
12476;SDS011;6303;51.504;6.300;2022-08-19T08:38:05;37.33;;;32.35;;
12476;SDS011;6303;51.504;6.300;2022-08-19T08:40:34;37.28;;;32.28;;
12476;SDS011;6303;51.504;6.300;2022-08-19T08:43:09;37.22;;;31.77;;
12476;SDS011;6303;51.504;6.300;2022-08-19T08:45:47;36.00;;;30.83;;
12476;SDS011;6303;51.504;6.300;2022-08-19T08:48:20;32.97;;;28.98;;
12476;SDS011;6303;51.504;6.300;2022-08-19T08:50:53;35.13;;;30.23;;
12476;SDS011;6303;51.504;6.300;2022-08-19T08:53:24;37.60;;;30.23;;
12476;SDS011;6303;51.504;6.300;2022-08-19T08:55:52;35.35;;;31.42;;
12476;SDS011;6303;51.504;6.300;2022-08-19T08:58:21;35.50;;;29.67;;
12476;SDS011;6303;51.504;6.300;2022-08-19T09:00:54;37.50;;;29.85;;
12476;SDS011;6303;51.504;6.300;2022-08-19T09:03:22;35.38;;;29.65;;
12476;SDS011;6303;51.504;6.300;2022-08-19T09:05:54;32.13;;;27.45;;
12476;SDS011;6303;51.504;6.300;2022-08-19T09:08:30;30.20;;;26.30;;
12476;SDS011;6303;51.504;6.300;2022-08-19T09:11:06;27.73;;;24.15;;
12476;SDS011;6303;51.504;6.300;2022-08-19T09:13:37;30.00;;;23.13;;
12476;SDS011;6303;51.504;6.300;2022-08-19T09:16:20;29.23;;;23.60;;
12476;SDS011;6303;51.504;6.300;2022-08-19T09:18:52;28.83;;;24.95;;
12476;SDS011;6303;51.504;6.300;2022-08-19T09:21:23;28.33;;;24.88;;
12476;SDS011;6303;51.504;6.300;2022-08-19T09:23:52;27.50;;;24.42;;
12476;SDS011;6303;51.504;6.300;2022-08-19T09:26:20;24.35;;;21.63;;
12476;SDS011;6303;51.504;6.300;2022-08-19T09:28:49;23.58;;;21.05;;
12476;SDS011;6303;51.504;6.300;2022-08-19T09:31:18;23.35;;;20.63;;
12476;SDS011;6303;51.504;6.300;2022-08-19T09:33:47;25.02;;;22.33;;
12476;SDS011;6303;51.504;6.300;2022-08-19T09:36:15;22.58;;;20.17;;
12476;SDS011;6303;51.504;6.300;2022-08-19T09:38:44;21.17;;;18.98;;
12476;SDS011;6303;51.504;6.300;2022-08-19T09:41:14;21.00;;;18.73;;
12476;SDS011;6303;51.504;6.300;2022-08-19T09:43:44;27.77;;;20.98;;
12476;SDS011;6303;51.504;6.300;2022-08-19T09:46:12;21.42;;;18.88;;
12476;SDS011;6303;51.504;6.300;2022-08-19T09:48:41;23.38;;;20.17;;
12476;SDS011;6303;51.504;6.300;2022-08-19T09:51:10;24.02;;;18.88;;
12476;SDS011;6303;51.504;6.300;2022-08-19T09:53:40;19.98;;;17.70;;
12476;SDS011;6303;51.504;6.300;2022-08-19T09:56:09;19.70;;;17.35;;
12476;SDS011;6303;51.504;6.300;2022-08-19T09:58:38;18.60;;;16.23;;
12476;SDS011;6303;51.504;6.300;2022-08-19T10:01:06;18.23;;;16.42;;
12476;SDS011;6303;51.504;6.300;2022-08-19T10:03:34;18.88;;;16.88;;
12476;SDS011;6303;51.504;6.300;2022-08-19T10:06:03;17.00;;;15.35;;
12476;SDS011;6303;51.504;6.300;2022-08-19T10:08:32;16.80;;;15.20;;
12476;SDS011;6303;51.504;6.300;2022-08-19T10:11:01;17.60;;;15.75;;
12476;SDS011;6303;51.504;6.300;2022-08-19T10:13:29;19.23;;;15.88;;
12476;SDS011;6303;51.504;6.300;2022-08-19T10:16:04;17.98;;;16.08;;
12476;SDS011;6303;51.504;6.300;2022-08-19T10:18:34;17.70;;;16.00;;
12476;SDS011;6303;51.504;6.300;2022-08-19T10:21:03;18.25;;;16.35;;
12476;SDS011;6303;51.504;6.300;2022-08-19T10:23:34;19.08;;;17.23;;
12476;SDS011;6303;51.504;6.300;2022-08-19T10:26:02;21.27;;;17.95;;
12476;SDS011;6303;51.504;6.300;2022-08-19T10:28:31;20.42;;;18.30;;
12476;SDS011;6303;51.504;6.300;2022-08-19T10:31:04;20.25;;;18.20;;
12476;SDS011;6303;51.504;6.300;2022-08-19T10:33:32;19.10;;;17.20;;
12476;SDS011;6303;51.504;6.300;2022-08-19T10:36:00;17.23;;;15.52;;
12476;SDS011;6303;51.504;6.300;2022-08-19T10:38:28;16.77;;;15.07;;
12476;SDS011;6303;51.504;6.300;2022-08-19T10:40:56;15.45;;;13.95;;
12476;SDS011;6303;51.504;6.300;2022-08-19T10:43:24;14.82;;;13.40;;
12476;SDS011;6303;51.504;6.300;2022-08-19T10:45:52;14.68;;;13.30;;
12476;SDS011;6303;51.504;6.300;2022-08-19T10:48:23;15.68;;;14.10;;
12476;SDS011;6303;51.504;6.300;2022-08-19T10:50:50;15.50;;;13.90;;
12476;SDS011;6303;51.504;6.300;2022-08-19T10:53:35;14.75;;;13.35;;
12476;SDS011;6303;51.504;6.300;2022-08-19T10:56:02;15.18;;;13.57;;
12476;SDS011;6303;51.504;6.300;2022-08-19T10:58:49;15.07;;;13.68;;
12476;SDS011;6303;51.504;6.300;2022-08-19T11:01:16;13.98;;;12.27;;
12476;SDS011;6303;51.504;6.300;2022-08-19T11:03:45;12.57;;;10.43;;
12476;SDS011;6303;51.504;6.300;2022-08-19T11:06:12;11.93;;;10.82;;
12476;SDS011;6303;51.504;6.300;2022-08-19T11:08:39;11.45;;;10.35;;
12476;SDS011;6303;51.504;6.300;2022-08-19T11:11:07;10.65;;;9.65;;
12476;SDS011;6303;51.504;6.300;2022-08-19T11:13:35;9.98;;;9.02;;
12476;SDS011;6303;51.504;6.300;2022-08-19T11:16:04;10.60;;;9.57;;
12476;SDS011;6303;51.504;6.300;2022-08-19T11:18:34;10.60;;;9.73;;
12476;SDS011;6303;51.504;6.300;2022-08-19T11:21:07;10.02;;;9.02;;
12476;SDS011;6303;51.504;6.300;2022-08-19T11:23:36;11.25;;;10.15;;
12476;SDS011;6303;51.504;6.300;2022-08-19T11:26:03;10.75;;;9.75;;
12476;SDS011;6303;51.504;6.300;2022-08-19T11:28:31;10.55;;;9.75;;
12476;SDS011;6303;51.504;6.300;2022-08-19T11:30:58;10.63;;;9.48;;
12476;SDS011;6303;51.504;6.300;2022-08-19T11:33:25;11.13;;;9.27;;
12476;SDS011;6303;51.504;6.300;2022-08-19T11:35:52;10.70;;;9.90;;
12476;SDS011;6303;51.504;6.300;2022-08-19T11:38:21;10.93;;;10.00;;
12476;SDS011;6303;51.504;6.300;2022-08-19T11:40:53;10.45;;;9.55;;
12476;SDS011;6303;51.504;6.300;2022-08-19T11:43:21;9.95;;;9.15;;
12476;SDS011;6303;51.504;6.300;2022-08-19T11:45:49;10.30;;;9.02;;
12476;SDS011;6303;51.504;6.300;2022-08-19T11:48:16;10.10;;;9.25;;
12476;SDS011;6303;51.504;6.300;2022-08-19T11:50:47;11.52;;;10.52;;
12476;SDS011;6303;51.504;6.300;2022-08-19T11:53:15;12.40;;;11.27;;
12476;SDS011;6303;51.504;6.300;2022-08-19T11:55:45;12.30;;;11.35;;
12476;SDS011;6303;51.504;6.300;2022-08-19T11:58:13;10.60;;;9.70;;
12476;SDS011;6303;51.504;6.300;2022-08-19T12:00:43;10.82;;;9.80;;
12476;SDS011;6303;51.504;6.300;2022-08-19T12:03:10;11.90;;;11.00;;
12476;SDS011;6303;51.504;6.300;2022-08-19T12:05:39;13.52;;;12.32;;
12476;SDS011;6303;51.504;6.300;2022-08-19T12:08:07;13.63;;;12.50;;
12476;SDS011;6303;51.504;6.300;2022-08-19T12:10:34;13.52;;;12.13;;
12476;SDS011;6303;51.504;6.300;2022-08-19T12:13:03;12.85;;;11.85;;
12476;SDS011;6303;51.504;6.300;2022-08-19T12:15:34;13.52;;;12.32;;
12476;SDS011;6303;51.504;6.300;2022-08-19T12:18:02;14.73;;;13.10;;
12476;SDS011;6303;51.504;6.300;2022-08-19T12:20:30;14.35;;;13.10;;
12476;SDS011;6303;51.504;6.300;2022-08-19T12:22:57;15.57;;;14.23;;
12476;SDS011;6303;51.504;6.300;2022-08-19T12:25:24;16.10;;;14.52;;
12476;SDS011;6303;51.504;6.300;2022-08-19T12:27:51;15.77;;;14.38;;
12476;SDS011;6303;51.504;6.300;2022-08-19T12:30:20;15.50;;;14.10;;
12476;SDS011;6303;51.504;6.300;2022-08-19T12:32:48;15.80;;;14.27;;
12476;SDS011;6303;51.504;6.300;2022-08-19T12:35:16;15.70;;;13.98;;
12476;SDS011;6303;51.504;6.300;2022-08-19T12:37:45;14.73;;;13.30;;
12476;SDS011;6303;51.504;6.300;2022-08-19T12:40:14;14.45;;;13.00;;
12476;SDS011;6303;51.504;6.300;2022-08-19T12:42:43;14.65;;;13.25;;
12476;SDS011;6303;51.504;6.300;2022-08-19T12:45:11;13.38;;;12.02;;
12476;SDS011;6303;51.504;6.300;2022-08-19T12:47:40;13.93;;;11.93;;
12476;SDS011;6303;51.504;6.300;2022-08-19T12:50:08;12.50;;;11.30;;
12476;SDS011;6303;51.504;6.300;2022-08-19T12:52:36;11.80;;;10.75;;
12476;SDS011;6303;51.504;6.300;2022-08-19T12:55:04;11.48;;;10.38;;
12476;SDS011;6303;51.504;6.300;2022-08-19T12:57:32;11.75;;;10.65;;
12476;SDS011;6303;51.504;6.300;2022-08-19T13:00:03;12.32;;;11.07;;
12476;SDS011;6303;51.504;6.300;2022-08-19T13:02:35;11.15;;;10.05;;
12476;SDS011;6303;51.504;6.300;2022-08-19T13:05:04;11.75;;;10.50;;
12476;SDS011;6303;51.504;6.300;2022-08-19T13:07:33;10.95;;;10.05;;
12476;SDS011;6303;51.504;6.300;2022-08-19T13:10:01;10.93;;;9.93;;
12476;SDS011;6303;51.504;6.300;2022-08-19T13:12:30;10.48;;;9.43;;
12476;SDS011;6303;51.504;6.300;2022-08-19T13:14:58;10.25;;;9.25;;
12476;SDS011;6303;51.504;6.300;2022-08-19T13:17:25;9.45;;;8.55;;
12476;SDS011;6303;51.504;6.300;2022-08-19T13:19:52;10.43;;;9.35;;
12476;SDS011;6303;51.504;6.300;2022-08-19T13:22:21;9.40;;;8.60;;
12476;SDS011;6303;51.504;6.300;2022-08-19T13:24:49;11.80;;;9.25;;
12476;SDS011;6303;51.504;6.300;2022-08-19T13:27:16;10.52;;;9.43;;
12476;SDS011;6303;51.504;6.300;2022-08-19T13:29:43;10.85;;;9.13;;
12476;SDS011;6303;51.504;6.300;2022-08-19T13:32:24;10.32;;;9.32;;
12476;SDS011;6303;51.504;6.300;2022-08-19T13:35:08;11.50;;;10.40;;
12476;SDS011;6303;51.504;6.300;2022-08-19T13:37:37;12.25;;;10.50;;
12476;SDS011;6303;51.504;6.300;2022-08-19T13:40:11;12.75;;;11.45;;
12476;SDS011;6303;51.504;6.300;2022-08-19T13:42:41;14.20;;;11.20;;
12476;SDS011;6303;51.504;6.300;2022-08-19T13:45:09;14.65;;;12.30;;
12476;SDS011;6303;51.504;6.300;2022-08-19T13:47:36;13.95;;;10.90;;
12476;SDS011;6303;51.504;6.300;2022-08-19T13:50:08;12.90;;;11.05;;
12476;SDS011;6303;51.504;6.300;2022-08-19T13:52:38;13.45;;;10.73;;
12476;SDS011;6303;51.504;6.300;2022-08-19T13:55:06;11.85;;;10.65;;
12476;SDS011;6303;51.504;6.300;2022-08-19T13:57:35;11.10;;;9.98;;
12476;SDS011;6303;51.504;6.300;2022-08-19T14:00:04;10.77;;;9.80;;
12476;SDS011;6303;51.504;6.300;2022-08-19T14:02:33;11.80;;;10.35;;
12476;SDS011;6303;51.504;6.300;2022-08-19T14:05:00;14.85;;;12.52;;
12476;SDS011;6303;51.504;6.300;2022-08-19T14:07:27;11.50;;;10.32;;
12476;SDS011;6303;51.504;6.300;2022-08-19T14:09:56;11.82;;;10.73;;
12476;SDS011;6303;51.504;6.300;2022-08-19T14:12:23;13.13;;;11.82;;
12476;SDS011;6303;51.504;6.300;2022-08-19T14:14:50;11.98;;;10.65;;
12476;SDS011;6303;51.504;6.300;2022-08-19T14:17:17;12.85;;;11.43;;
12476;SDS011;6303;51.504;6.300;2022-08-19T14:19:44;14.70;;;12.10;;
12476;SDS011;6303;51.504;6.300;2022-08-19T14:22:11;14.88;;;11.50;;
12476;SDS011;6303;51.504;6.300;2022-08-19T14:24:38;15.40;;;11.90;;
12476;SDS011;6303;51.504;6.300;2022-08-19T14:27:07;13.88;;;12.45;;
12476;SDS011;6303;51.504;6.300;2022-08-19T14:29:34;14.77;;;13.27;;
12476;SDS011;6303;51.504;6.300;2022-08-19T14:32:01;15.02;;;12.93;;
12476;SDS011;6303;51.504;6.300;2022-08-19T14:34:28;14.68;;;13.18;;
12476;SDS011;6303;51.504;6.300;2022-08-19T14:36:56;17.17;;;15.23;;
12476;SDS011;6303;51.504;6.300;2022-08-19T14:39:23;17.45;;;15.68;;
12476;SDS011;6303;51.504;6.300;2022-08-19T14:41:51;18.58;;;16.00;;
12476;SDS011;6303;51.504;6.300;2022-08-19T14:44:19;17.98;;;16.08;;
12476;SDS011;6303;51.504;6.300;2022-08-19T14:46:47;18.65;;;16.40;;
12476;SDS011;6303;51.504;6.300;2022-08-19T14:49:15;18.77;;;16.70;;
12476;SDS011;6303;51.504;6.300;2022-08-19T14:51:43;16.80;;;15.20;;
12476;SDS011;6303;51.504;6.300;2022-08-19T14:54:12;17.75;;;15.93;;